KLPC/LPC METAR and TAF weather

Enter ICAO airport designator
Station Type Date Time Source
KLPC METAR 2020/11/28 18:56 UTC NOAA

KLPC 281856Z AUTO 00000KT 10SM CLR 19/M04 A3021 RMK AO2 SLP232 T01891039


Station Type Date Time Source
KLPC Decoded METAR 2020/11/28 18:56 UTC NOAA

Lompoc, Lompoc Airport, CA, United States (KLPC) 34-40N 120-28W
Nov 28, 2020 - 01:56 PM EST / 2020.11.28 1856 UTC
Wind: Calm:0
Visibility: 10 mile(s):0
Sky conditions: clear
Temperature: 66.0 F (18.9 C)
Dew Point: 25.0 F (-3.9 C)
Relative Humidity: 20%
Pressure (altimeter): 30.21 in. Hg (1023 hPa)
ob: KLPC 281856Z AUTO 00000KT 10SM CLR 19/M04 A3021 RMK AO2 SLP232 T01891039
cycle: 19

Station Type Date Time Source
KLPC TAF UTC NOAA

Error!

Example: see airport list